createdAt,value
2018-09-09T19:14:42.150Z,18.87
2018-09-09T19:17:45.144Z,18.82
2018-09-09T19:20:48.127Z,18.68
2018-09-09T19:23:51.150Z,18.67
2018-09-09T19:26:54.174Z,18.66
2018-09-09T19:29:57.182Z,18.51
2018-09-09T19:33:00.158Z,18.45
2018-09-09T19:36:03.154Z,18.33
2018-09-09T19:39:09.182Z,18.30
2018-09-09T19:42:12.219Z,18.18
2018-09-09T19:45:15.266Z,18.09
2018-09-09T19:48:18.309Z,18.04
2018-09-09T19:51:21.316Z,18.03
2018-09-09T19:54:24.353Z,17.95
2018-09-09T19:57:27.364Z,17.94
2018-09-09T20:00:30.390Z,17.96
2018-09-09T20:03:33.588Z,17.89
2018-09-09T20:06:36.631Z,17.75
2018-09-09T20:09:39.626Z,17.78
2018-09-09T20:12:42.597Z,17.73
2018-09-09T20:15:45.666Z,17.66
2018-09-09T20:18:48.693Z,17.64
2018-09-09T20:21:51.697Z,17.65
2018-09-09T20:24:54.701Z,17.56
2018-09-09T20:27:57.694Z,17.46
2018-09-09T20:31:00.994Z,17.50
2018-09-09T20:34:04.057Z,17.35
2018-09-09T20:37:07.134Z,17.27
2018-09-09T20:40:10.142Z,17.29
2018-09-09T20:43:13.114Z,17.26
2018-09-09T20:46:16.102Z,17.25
2018-09-09T20:49:19.077Z,17.18
2018-09-09T20:52:22.082Z,17.20
2018-09-09T20:55:25.249Z,17.10
2018-09-09T20:58:28.269Z,17.07
2018-09-09T21:01:31.347Z,16.95
2018-09-09T21:04:34.426Z,16.97
2018-09-09T21:07:37.542Z,16.87
2018-09-09T21:10:40.673Z,16.88
2018-09-09T21:13:43.697Z,16.88
2018-09-09T21:16:46.749Z,16.80
2018-09-09T21:19:49.767Z,16.77
2018-09-09T21:22:52.814Z,16.76
2018-09-09T21:25:55.857Z,16.73
2018-09-09T21:28:59.818Z,16.64
2018-09-09T21:32:02.981Z,16.64
2018-09-09T21:35:06.110Z,16.61
2018-09-09T21:38:09.145Z,16.58
2018-09-09T21:41:12.161Z,16.52
2018-09-09T21:44:15.134Z,16.40
2018-09-09T21:47:18.179Z,16.36
2018-09-09T21:50:21.166Z,16.39
2018-09-09T21:53:24.153Z,16.41
2018-09-09T21:56:27.130Z,16.41
2018-09-09T21:59:30.104Z,16.32
2018-09-09T22:02:33.090Z,16.27
2018-09-09T22:05:36.150Z,16.29
2018-09-09T22:08:39.166Z,16.23
2018-09-09T22:11:42.154Z,16.18
2018-09-09T22:14:45.141Z,16.01
2018-09-09T22:17:48.165Z,15.96
2018-09-09T22:20:51.140Z,15.97
2018-09-09T22:23:54.158Z,15.95
2018-09-09T22:26:57.137Z,15.86
2018-09-09T22:30:00.133Z,15.74
2018-09-09T22:33:03.148Z,15.74
2018-09-09T22:36:06.143Z,15.68
2018-09-09T22:39:10.114Z,15.64
2018-09-09T22:42:13.094Z,15.59
2018-09-09T22:45:16.123Z,15.59
2018-09-09T22:48:19.826Z,15.46
2018-09-09T22:51:22.841Z,15.41
2018-09-09T22:54:25.879Z,15.32
2018-09-09T22:57:28.885Z,15.24
2018-09-09T23:00:31.878Z,15.27
2018-09-09T23:03:34.861Z,15.24
2018-09-09T23:06:37.833Z,15.32
2018-09-09T23:09:40.853Z,15.36
2018-09-09T23:12:43.852Z,15.23
2018-09-09T23:15:46.899Z,15.05
2018-09-09T23:18:49.954Z,15.05
2018-09-09T23:21:52.921Z,15.02
2018-09-09T23:24:55.915Z,15.04
2018-09-09T23:27:58.909Z,14.98
2018-09-09T23:31:01.874Z,14.95
2018-09-09T23:34:04.857Z,14.95
2018-09-09T23:37:07.849Z,14.83
2018-09-09T23:40:10.857Z,14.73
2018-09-09T23:43:13.865Z,14.74
2018-09-09T23:46:16.853Z,14.76
2018-09-09T23:49:19.857Z,14.70
2018-09-09T23:52:22.825Z,14.67
2018-09-09T23:55:25.831Z,14.60
2018-09-09T23:58:28.805Z,14.55
